createdAt,value
2023-05-13T00:00:23.803Z,4.30
2023-05-13T00:01:26.419Z,4.00
2023-05-13T00:02:28.719Z,4.10
2023-05-13T00:03:31.040Z,4.00
2023-05-13T00:04:33.228Z,3.63
2023-05-13T00:05:35.619Z,4.15
2023-05-13T00:06:38.074Z,4.20
2023-05-13T00:07:41.715Z,4.13
2023-05-13T00:08:44.222Z,5.18
2023-05-13T00:09:46.381Z,4.50
2023-05-13T00:10:49.009Z,4.30
2023-05-13T00:11:51.205Z,4.32
2023-05-13T00:12:53.443Z,4.22
2023-05-13T00:13:55.870Z,3.88
2023-05-13T00:14:58.088Z,4.50
2023-05-13T00:16:00.721Z,3.83
2023-05-13T00:17:04.847Z,4.03
2023-05-13T00:18:07.140Z,4.53
2023-05-13T00:19:09.423Z,3.88
2023-05-13T00:20:12.224Z,4.00
2023-05-13T00:21:14.394Z,4.32
2023-05-13T00:22:16.728Z,4.38
2023-05-13T00:23:18.932Z,4.57
2023-05-13T00:24:21.128Z,3.67
2023-05-13T00:25:23.538Z,4.00
2023-05-13T00:26:25.928Z,3.95
2023-05-13T00:27:28.362Z,3.95
2023-05-13T00:28:30.805Z,3.50
2023-05-13T00:29:33.325Z,4.00
2023-05-13T00:30:35.740Z,3.85
2023-05-13T00:31:38.047Z,4.45
2023-05-13T00:32:40.512Z,3.95
2023-05-13T00:33:44.347Z,4.13
2023-05-13T00:34:46.880Z,3.88
2023-05-13T00:35:49.263Z,4.30
2023-05-13T00:36:51.468Z,4.75
2023-05-13T00:37:53.745Z,3.88
2023-05-13T00:38:56.083Z,3.65
2023-05-13T00:39:58.315Z,3.58
2023-05-13T00:41:01.287Z,3.97
2023-05-13T00:42:04.982Z,3.80
2023-05-13T00:43:07.348Z,4.30
2023-05-13T00:44:09.563Z,3.80
2023-05-13T00:45:11.752Z,4.30
2023-05-13T00:46:15.704Z,4.47
2023-05-13T00:50:19.066Z,4.18
2023-05-13T00:51:22.554Z,3.60
2023-05-13T00:52:24.823Z,4.25
2023-05-13T00:53:27.162Z,4.20
2023-05-13T00:54:29.848Z,4.03
2023-05-13T00:55:32.390Z,3.85
2023-05-13T00:56:34.744Z,3.92
2023-05-13T00:57:38.040Z,4.47
2023-05-13T00:58:40.276Z,4.15
2023-05-13T00:59:42.532Z,4.35
2023-05-13T01:00:55.743Z,3.58
2023-05-13T01:02:34.853Z,3.95
2023-05-13T01:03:51.177Z,3.67
2023-05-13T01:04:56.536Z,3.75
2023-05-13T01:06:12.715Z,4.07
2023-05-13T01:07:20.912Z,4.03
2023-05-13T01:08:47.426Z,4.15
2023-05-13T01:10:11.395Z,4.07
2023-05-13T01:11:27.809Z,3.80
2023-05-13T01:12:35.055Z,3.83
2023-05-13T01:13:43.055Z,3.85
2023-05-13T01:14:54.182Z,4.05
2023-05-13T01:17:05.877Z,4.05
2023-05-13T01:18:20.582Z,3.90
2023-05-13T01:19:56.127Z,4.50
2023-05-13T01:21:01.176Z,3.88
2023-05-13T01:22:03.603Z,3.97
2023-05-13T01:23:06.739Z,4.40
2023-05-13T01:24:10.306Z,4.03
2023-05-13T01:25:13.716Z,4.88
2023-05-13T01:26:16.317Z,4.07
2023-05-13T01:27:18.931Z,3.63
2023-05-13T01:28:21.525Z,4.03
2023-05-13T01:29:28.048Z,4.18
2023-05-13T01:30:31.201Z,4.20
2023-05-13T01:31:34.008Z,4.00
2023-05-13T01:32:37.719Z,4.43
2023-05-13T01:33:41.534Z,3.80
2023-05-13T01:34:44.686Z,4.05
2023-05-13T01:35:47.717Z,4.10
2023-05-13T01:36:51.951Z,4.53
2023-05-13T01:37:59.402Z,3.95
2023-05-13T01:39:03.408Z,4.05
2023-05-13T01:40:24.368Z,3.85
2023-05-13T01:41:30.561Z,4.20
2023-05-13T01:42:35.097Z,4.25
2023-05-13T01:43:37.389Z,4.28
2023-05-13T01:44:40.167Z,4.22
2023-05-13T01:45:42.413Z,3.95
2023-05-13T01:46:45.302Z,3.75
2023-05-13T01:47:48.572Z,4.20
2023-05-13T01:48:51.404Z,4.35
2023-05-13T01:49:53.654Z,4.10
2023-05-13T01:50:56.274Z,4.40
2023-05-13T01:51:59.227Z,3.90
2023-05-13T01:53:03.325Z,4.13
2023-05-13T01:54:05.983Z,5.25
2023-05-13T01:55:11.002Z,3.65
2023-05-13T01:56:14.176Z,4.63
2023-05-13T01:57:16.664Z,4.90
2023-05-13T01:58:18.920Z,4.43
2023-05-13T01:59:23.983Z,4.38
2023-05-13T02:00:26.262Z,4.10
2023-05-13T02:01:28.709Z,4.30
2023-05-13T02:02:30.980Z,4.18
2023-05-13T02:03:34.057Z,4.55
2023-05-13T02:04:36.360Z,4.30
2023-05-13T02:05:39.520Z,4.50
2023-05-13T02:06:43.621Z,4.28
2023-05-13T02:07:46.022Z,3.90
2023-05-13T02:08:48.577Z,4.05
2023-05-13T02:09:50.829Z,4.00
2023-05-13T02:10:57.063Z,4.30
2023-05-13T02:11:59.582Z,4.30
2023-05-13T02:13:01.844Z,4.28
2023-05-13T02:14:04.389Z,4.05
2023-05-13T02:15:07.048Z,4.85
2023-05-13T02:16:14.294Z,4.25
2023-05-13T02:17:16.597Z,4.40
2023-05-13T02:18:19.245Z,4.10
2023-05-13T02:19:21.808Z,4.63
2023-05-13T02:20:24.682Z,4.45
2023-05-13T02:21:27.007Z,4.25
2023-05-13T02:22:29.189Z,4.85
2023-05-13T02:23:31.351Z,3.85
2023-05-13T02:24:34.976Z,3.80
2023-05-13T02:25:37.227Z,4.57
2023-05-13T02:26:41.612Z,4.25
2023-05-13T02:27:43.978Z,4.75
2023-05-13T02:28:46.547Z,4.53
2023-05-13T02:29:49.649Z,3.97
2023-05-13T02:30:52.305Z,4.30
2023-05-13T02:31:55.623Z,4.32
2023-05-13T02:32:58.291Z,4.47
2023-05-13T02:34:00.537Z,4.70
2023-05-13T02:35:02.752Z,3.85
2023-05-13T02:36:05.215Z,4.30
2023-05-13T02:37:07.396Z,3.92
2023-05-13T02:38:16.094Z,3.92
2023-05-13T02:39:18.528Z,4.68
2023-05-13T02:40:20.931Z,4.35
2023-05-13T02:41:24.582Z,4.25
2023-05-13T02:42:27.179Z,4.72
2023-05-13T02:43:31.197Z,4.38
2023-05-13T02:44:38.779Z,4.47
2023-05-13T02:45:41.738Z,4.45
2023-05-13T02:46:45.313Z,4.07
2023-05-13T02:47:47.527Z,5.00
2023-05-13T02:48:49.795Z,4.38
2023-05-13T02:49:52.671Z,4.63
2023-05-13T02:50:54.866Z,4.15
2023-05-13T02:51:57.295Z,4.43
2023-05-13T02:53:07.054Z,4.43
2023-05-13T02:54:11.791Z,4.28
2023-05-13T02:55:14.467Z,4.68
2023-05-13T02:56:17.914Z,4.20
2023-05-13T02:57:20.233Z,4.25
2023-05-13T02:58:22.653Z,4.25
2023-05-13T02:59:25.053Z,4.78
2023-05-13T03:00:27.490Z,4.43
2023-05-13T03:01:31.142Z,4.50
2023-05-13T03:02:34.966Z,4.65
2023-05-13T03:03:37.641Z,4.35
2023-05-13T03:04:41.487Z,5.20
2023-05-13T03:05:43.753Z,4.50
2023-05-13T03:06:46.857Z,5.05
2023-05-13T03:07:49.294Z,4.57
2023-05-13T03:08:51.510Z,4.35
2023-05-13T03:09:54.112Z,4.68
2023-05-13T03:10:56.311Z,4.32
2023-05-13T03:11:58.609Z,4.53
2023-05-13T03:13:02.530Z,4.85
2023-05-13T03:14:04.840Z,4.38
2023-05-13T03:15:07.648Z,4.97
2023-05-13T03:16:09.916Z,4.78
2023-05-13T03:17:12.583Z,4.55
2023-05-13T03:18:15.148Z,4.70
2023-05-13T03:19:17.734Z,5.15
2023-05-13T03:20:20.378Z,5.15
2023-05-13T03:21:22.812Z,4.40
2023-05-13T03:22:25.042Z,5.15
2023-05-13T03:23:27.307Z,4.90
2023-05-13T03:24:32.434Z,4.68
2023-05-13T03:25:35.174Z,5.40
2023-05-13T03:26:38.119Z,4.28
2023-05-13T03:27:40.600Z,4.78
2023-05-13T03:28:43.815Z,4.90
2023-05-13T03:29:46.401Z,5.28
2023-05-13T03:30:49.162Z,5.20
2023-05-13T03:31:54.483Z,4.82
2023-05-13T03:32:58.868Z,4.65
2023-05-13T03:34:03.099Z,4.00
2023-05-13T03:35:05.844Z,4.72
2023-05-13T03:36:08.344Z,5.18
2023-05-13T03:37:10.542Z,4.53
2023-05-13T03:38:12.992Z,4.05
2023-05-13T03:39:19.777Z,4.32
2023-05-13T03:40:22.596Z,4.63
2023-05-13T03:41:28.112Z,4.90
2023-05-13T03:42:32.565Z,4.70
2023-05-13T03:43:38.035Z,4.70
2023-05-13T03:44:44.255Z,4.72
2023-05-13T03:45:48.861Z,4.45
2023-05-13T03:46:54.184Z,4.70
2023-05-13T03:47:56.844Z,4.78
2023-05-13T03:49:00.145Z,4.72
2023-05-13T03:50:04.397Z,4.40
2023-05-13T03:51:13.693Z,5.40
2023-05-13T03:52:16.799Z,5.05
2023-05-13T03:53:20.519Z,4.63
2023-05-13T03:54:23.089Z,5.32
2023-05-13T03:55:25.491Z,4.72
2023-05-13T03:56:28.242Z,4.80
2023-05-13T03:57:30.999Z,5.47
2023-05-13T03:58:33.519Z,4.90
2023-05-13T03:59:35.764Z,4.90
2023-05-13T04:00:38.389Z,4.75
2023-05-13T04:01:41.014Z,5.20
2023-05-13T04:02:44.583Z,5.00
2023-05-13T04:03:49.853Z,4.65
2023-05-13T04:04:52.202Z,5.28
2023-05-13T04:05:54.878Z,4.72
2023-05-13T04:06:57.178Z,5.07
2023-05-13T04:07:59.591Z,5.18
2023-05-13T04:09:04.529Z,5.05
2023-05-13T04:10:08.043Z,5.10
2023-05-13T04:11:10.389Z,5.03
2023-05-13T04:12:12.875Z,5.35
2023-05-13T04:13:15.091Z,5.00
2023-05-13T04:14:19.305Z,4.70
2023-05-13T04:15:21.719Z,4.65
2023-05-13T04:16:25.769Z,4.70
2023-05-13T04:17:28.174Z,5.47
2023-05-13T04:18:31.518Z,5.38
2023-05-13T04:19:33.778Z,4.68
2023-05-13T04:20:39.640Z,4.75
2023-05-13T04:21:42.219Z,5.20
2023-05-13T04:22:44.373Z,5.50
2023-05-13T04:23:46.749Z,4.97
2023-05-13T04:24:52.098Z,5.25
2023-05-13T04:25:54.340Z,5.03
2023-05-13T04:26:57.811Z,5.30
2023-05-13T04:28:00.978Z,5.43
2023-05-13T04:29:07.462Z,5.40
2023-05-13T04:30:10.900Z,5.28
2023-05-13T04:31:14.715Z,4.88
2023-05-13T04:32:22.245Z,5.43
2023-05-13T04:33:27.291Z,4.88
2023-05-13T04:34:29.524Z,5.15
2023-05-13T04:35:32.386Z,4.72
2023-05-13T04:36:37.113Z,5.50
2023-05-13T04:37:39.414Z,4.93
2023-05-13T04:38:45.055Z,4.93
2023-05-13T04:39:48.187Z,5.07
2023-05-13T04:40:52.377Z,5.22
2023-05-13T04:42:05.244Z,4.70
2023-05-13T04:43:08.282Z,5.20
2023-05-13T04:44:17.943Z,5.50
2023-05-13T04:45:20.919Z,4.70
2023-05-13T04:46:23.175Z,4.80
2023-05-13T04:47:27.041Z,5.60
2023-05-13T04:48:29.389Z,5.00
2023-05-13T04:49:33.545Z,5.10
2023-05-13T04:50:36.703Z,4.97
2023-05-13T04:51:39.825Z,4.95
2023-05-13T04:52:43.302Z,4.90
2023-05-13T04:53:46.120Z,4.50
2023-05-13T04:54:48.844Z,5.30
2023-05-13T04:55:57.156Z,5.47
2023-05-13T04:57:03.209Z,5.03
2023-05-13T04:58:06.314Z,4.85
2023-05-13T04:59:10.398Z,5.45
2023-05-13T05:00:13.871Z,5.10
2023-05-13T05:01:17.449Z,4.82
2023-05-13T05:02:20.026Z,5.03
2023-05-13T05:03:23.381Z,4.70
2023-05-13T05:04:25.955Z,4.88
2023-05-13T05:05:28.333Z,5.07
2023-05-13T05:06:31.345Z,4.95
2023-05-13T05:07:34.228Z,5.05
2023-05-13T05:08:37.039Z,4.38
2023-05-13T05:09:39.374Z,5.03
2023-05-13T05:10:41.592Z,5.78
2023-05-13T05:11:45.009Z,4.38
2023-05-13T05:12:48.393Z,4.55
2023-05-13T05:13:50.794Z,4.70
2023-05-13T05:14:53.018Z,4.78
2023-05-13T05:15:55.775Z,5.30
2023-05-13T05:16:58.226Z,5.25
2023-05-13T05:18:00.871Z,4.85
2023-05-13T05:19:03.465Z,4.88
2023-05-13T05:20:08.771Z,4.90
2023-05-13T05:21:11.420Z,4.72
2023-05-13T05:22:13.681Z,4.63
2023-05-13T05:23:16.045Z,5.50
2023-05-13T05:24:19.434Z,5.15
2023-05-13T05:25:24.803Z,6.45
2023-05-13T05:26:27.117Z,4.97
2023-05-13T05:27:29.686Z,4.97
2023-05-13T05:28:32.189Z,4.70
2023-05-13T05:29:34.386Z,5.03
2023-05-13T05:30:39.879Z,5.00
2023-05-13T05:31:48.289Z,4.68
2023-05-13T05:32:51.241Z,4.90
2023-05-13T05:33:53.561Z,4.68
2023-05-13T05:34:55.863Z,5.10
2023-05-13T05:35:58.367Z,4.72
2023-05-13T05:37:00.748Z,5.38
2023-05-13T05:38:07.674Z,4.13
2023-05-13T05:39:11.004Z,4.82
2023-05-13T05:40:13.622Z,5.35
2023-05-13T05:41:16.325Z,4.72
2023-05-13T05:42:19.196Z,4.97
2023-05-13T05:43:21.628Z,4.60
2023-05-13T05:44:23.881Z,5.18
2023-05-13T05:45:26.260Z,5.25
2023-05-13T05:46:28.501Z,4.72
2023-05-13T05:47:31.059Z,4.90
2023-05-13T05:48:34.922Z,5.00
2023-05-13T05:49:38.200Z,5.10
2023-05-13T05:50:41.504Z,4.82
2023-05-13T05:51:46.084Z,5.10
2023-05-13T05:52:48.593Z,5.65
2023-05-13T05:53:52.192Z,5.55
2023-05-13T05:54:54.927Z,5.30
2023-05-13T05:55:57.568Z,5.70
2023-05-13T05:56:59.813Z,4.88
2023-05-13T05:58:05.712Z,5.80
2023-05-13T05:59:10.418Z,5.18
2023-05-13T06:00:14.594Z,5.30
2023-05-13T06:01:19.395Z,5.40
2023-05-13T06:02:21.696Z,4.80
2023-05-13T06:03:25.714Z,5.35
2023-05-13T06:04:28.125Z,5.68
2023-05-13T06:05:30.544Z,4.90
2023-05-13T06:06:33.135Z,5.65
2023-05-13T06:07:35.632Z,5.05
2023-05-13T06:08:38.112Z,5.22
2023-05-13T06:09:40.584Z,5.78
2023-05-13T06:10:44.011Z,5.50
2023-05-13T06:11:46.807Z,5.35
2023-05-13T06:12:49.051Z,5.47
2023-05-13T06:13:51.740Z,5.25
2023-05-13T06:14:53.941Z,5.50
2023-05-13T06:15:56.264Z,5.13
2023-05-13T06:16:58.608Z,5.07
2023-05-13T06:18:01.803Z,5.60
2023-05-13T06:19:04.502Z,5.80
2023-05-13T06:20:07.319Z,5.57
2023-05-13T06:21:09.526Z,5.38
2023-05-13T06:22:12.270Z,4.88
2023-05-13T06:23:15.067Z,5.13
2023-05-13T06:24:17.327Z,5.40
2023-05-13T06:25:19.562Z,5.50
2023-05-13T06:26:22.185Z,5.25
2023-05-13T06:27:25.195Z,5.22
2023-05-13T06:28:27.380Z,5.20
2023-05-13T06:29:29.872Z,5.50
2023-05-13T06:30:32.236Z,6.03
2023-05-13T06:31:34.623Z,6.25
2023-05-13T06:32:39.440Z,5.30
2023-05-13T06:33:45.776Z,5.15
2023-05-13T06:34:48.679Z,5.32
2023-05-13T06:35:51.058Z,5.80
2023-05-13T06:36:56.173Z,5.90
2023-05-13T06:37:58.380Z,5.22
2023-05-13T06:39:01.051Z,5.32
2023-05-13T06:40:04.464Z,5.97
2023-05-13T06:41:10.859Z,5.45
2023-05-13T06:42:14.429Z,5.50
2023-05-13T06:43:21.480Z,5.72
2023-05-13T06:44:31.360Z,5.40
2023-05-13T06:45:33.573Z,5.57
2023-05-13T06:46:37.940Z,5.53
2023-05-13T06:47:41.461Z,6.05
2023-05-13T06:48:46.045Z,5.07
2023-05-13T06:49:48.651Z,5.72
2023-05-13T06:50:52.204Z,5.85
2023-05-13T06:51:54.443Z,5.32
2023-05-13T06:52:57.868Z,5.22
2023-05-13T06:54:02.107Z,5.30
2023-05-13T06:55:04.840Z,5.68
2023-05-13T06:56:07.891Z,5.50
2023-05-13T06:57:12.224Z,4.88
2023-05-13T06:58:15.053Z,5.05
2023-05-13T06:59:17.496Z,5.70
2023-05-13T07:00:20.310Z,5.63
2023-05-13T07:01:22.845Z,5.97
2023-05-13T07:02:25.178Z,5.07
2023-05-13T07:03:27.465Z,5.57
2023-05-13T07:04:30.553Z,5.10
2023-05-13T07:05:33.993Z,5.40
2023-05-13T07:06:36.310Z,5.20
2023-05-13T07:07:39.281Z,5.28
2023-05-13T07:08:41.633Z,5.30
2023-05-13T07:09:44.189Z,5.10
2023-05-13T07:10:46.422Z,5.50
2023-05-13T07:11:48.645Z,5.50
2023-05-13T07:12:50.916Z,5.15
2023-05-13T07:13:53.134Z,5.72
2023-05-13T07:14:55.572Z,5.35
2023-05-13T07:15:57.767Z,5.10
2023-05-13T07:16:59.984Z,4.95
2023-05-13T07:18:02.436Z,5.60
2023-05-13T07:19:04.609Z,5.18
2023-05-13T07:20:07.797Z,5.03
2023-05-13T07:21:10.046Z,5.40
2023-05-13T07:22:12.290Z,5.47
2023-05-13T07:23:14.458Z,4.50
2023-05-13T07:24:16.985Z,5.63
2023-05-13T07:25:19.353Z,4.93
2023-05-13T07:26:21.692Z,5.50
2023-05-13T07:27:24.110Z,5.28
2023-05-13T07:28:26.427Z,5.60
2023-05-13T07:29:28.632Z,5.35
2023-05-13T07:30:31.368Z,5.63
2023-05-13T07:31:34.461Z,5.47
2023-05-13T07:32:37.115Z,5.03
2023-05-13T07:33:40.911Z,4.47
2023-05-13T07:34:43.125Z,4.93
2023-05-13T07:35:45.537Z,5.57
2023-05-13T07:36:47.734Z,5.82
2023-05-13T07:37:49.934Z,4.82
2023-05-13T07:38:52.461Z,5.40
2023-05-13T07:39:54.898Z,5.15
2023-05-13T07:40:57.298Z,5.20
2023-05-13T07:41:59.475Z,5.22
2023-05-13T07:43:02.055Z,5.88
2023-05-13T07:44:05.845Z,5.78
2023-05-13T07:45:08.705Z,4.80
2023-05-13T07:46:10.905Z,5.00
2023-05-13T07:47:13.997Z,5.22
2023-05-13T07:48:17.821Z,4.93
2023-05-13T07:49:21.317Z,5.05
2023-05-13T07:50:23.874Z,5.13
2023-05-13T07:51:26.165Z,4.90
2023-05-13T07:52:28.488Z,4.85
2023-05-13T07:53:30.883Z,4.80
2023-05-13T07:54:33.169Z,4.78
2023-05-13T07:55:35.636Z,4.85
2023-05-13T07:56:38.529Z,4.68
2023-05-13T07:57:40.809Z,4.45
2023-05-13T07:58:43.180Z,4.30
2023-05-13T07:59:45.680Z,4.72
2023-05-13T08:00:49.546Z,4.68
2023-05-13T08:01:51.931Z,5.80
2023-05-13T08:02:54.418Z,4.95
2023-05-13T08:03:56.947Z,5.68
2023-05-13T08:04:59.533Z,4.90
2023-05-13T08:06:01.742Z,4.68
2023-05-13T08:07:14.094Z,4.57
2023-05-13T08:08:16.485Z,4.85
2023-05-13T08:09:18.697Z,4.68
2023-05-13T08:10:21.251Z,4.55
2023-05-13T08:11:23.919Z,4.90
2023-05-13T08:12:26.128Z,5.40
2023-05-13T08:13:28.535Z,4.95
2023-05-13T08:14:30.707Z,5.07
2023-05-13T08:15:32.932Z,4.63
2023-05-13T08:16:38.878Z,4.40
2023-05-13T08:17:41.122Z,4.75
2023-05-13T08:18:43.366Z,4.75
2023-05-13T08:19:46.240Z,4.88
2023-05-13T08:20:48.443Z,4.25
2023-05-13T08:21:51.074Z,4.38
2023-05-13T08:22:53.254Z,5.05
2023-05-13T08:23:55.481Z,4.35
2023-05-13T08:24:59.419Z,4.35
2023-05-13T08:26:01.884Z,4.50
2023-05-13T08:27:05.703Z,4.65
2023-05-13T08:28:08.094Z,4.93
2023-05-13T08:29:14.019Z,4.82
2023-05-13T08:30:16.729Z,4.85
2023-05-13T08:31:19.175Z,5.07
2023-05-13T08:32:21.850Z,4.72
2023-05-13T08:33:24.189Z,4.32
2023-05-13T08:34:26.566Z,4.22
2023-05-13T08:35:28.935Z,4.63
2023-05-13T08:36:31.528Z,4.90
2023-05-13T08:37:33.717Z,4.40
2023-05-13T08:38:35.913Z,5.03
2023-05-13T08:39:38.150Z,4.30
2023-05-13T08:40:42.418Z,4.18
2023-05-13T08:41:52.081Z,3.95
2023-05-13T08:42:57.725Z,4.47
2023-05-13T08:44:00.810Z,4.40
2023-05-13T08:45:05.677Z,4.32
2023-05-13T08:46:11.923Z,4.63
2023-05-13T08:47:27.016Z,4.40
2023-05-13T08:48:30.043Z,4.10
2023-05-13T08:49:34.242Z,4.15
2023-05-13T08:50:37.120Z,4.38
2023-05-13T08:51:41.104Z,4.57
2023-05-13T08:52:44.077Z,4.03
2023-05-13T08:53:47.988Z,4.55
2023-05-13T08:54:50.392Z,4.82
2023-05-13T08:55:54.125Z,3.58
2023-05-13T08:56:56.494Z,4.22
2023-05-13T08:57:58.916Z,4.00
2023-05-13T08:59:01.111Z,3.70
2023-05-13T09:00:04.848Z,3.80
2023-05-13T09:01:07.813Z,3.83
2023-05-13T09:02:10.879Z,3.80
2023-05-13T09:03:14.101Z,4.15
2023-05-13T09:04:17.742Z,4.30
2023-05-13T09:05:21.919Z,3.60
2023-05-13T09:06:24.417Z,4.38
2023-05-13T09:07:26.921Z,4.13
2023-05-13T09:08:29.132Z,3.63
2023-05-13T09:09:31.614Z,4.30
2023-05-13T09:10:33.808Z,3.90
2023-05-13T09:11:36.167Z,3.80
2023-05-13T09:12:52.624Z,3.67
2023-05-13T09:14:06.456Z,3.78
2023-05-13T09:15:10.419Z,3.30
2023-05-13T09:16:14.270Z,4.00
2023-05-13T09:17:17.790Z,2.90
2023-05-13T09:18:20.343Z,3.42
2023-05-13T09:19:24.517Z,3.38
2023-05-13T09:20:27.768Z,2.90
2023-05-13T09:21:32.235Z,3.38
2023-05-13T09:22:34.390Z,2.92
2023-05-13T09:23:36.899Z,3.08
2023-05-13T09:24:39.203Z,3.00
2023-05-13T09:25:41.753Z,2.50
2023-05-13T09:26:45.330Z,3.22
2023-05-13T09:27:49.272Z,3.38
2023-05-13T09:29:14.504Z,3.38
2023-05-13T09:30:16.741Z,2.75
2023-05-13T09:31:33.004Z,2.95
2023-05-13T09:32:35.483Z,3.05
2023-05-13T09:33:38.326Z,2.90
2023-05-13T09:34:40.497Z,2.70
2023-05-13T09:35:45.096Z,2.80
2023-05-13T09:37:04.768Z,2.45
2023-05-13T09:38:14.503Z,2.85
2023-05-13T09:39:16.986Z,2.80
2023-05-13T09:40:19.486Z,2.80
2023-05-13T09:41:21.801Z,2.70
2023-05-13T09:42:24.023Z,2.47
2023-05-13T09:43:39.119Z,2.63
2023-05-13T09:44:42.399Z,2.97
2023-05-13T09:45:44.994Z,2.67
2023-05-13T09:46:47.412Z,2.58
2023-05-13T09:47:53.424Z,2.80
2023-05-13T09:48:58.857Z,3.55
2023-05-13T09:50:02.322Z,3.13
2023-05-13T09:51:05.110Z,3.03
2023-05-13T09:52:11.504Z,3.45
2023-05-13T09:53:13.674Z,2.72
2023-05-13T09:54:16.734Z,2.47
2023-05-13T09:55:19.023Z,3.17
2023-05-13T09:56:24.030Z,2.30
2023-05-13T09:57:29.956Z,2.55
2023-05-13T09:58:32.484Z,2.50
2023-05-13T09:59:35.594Z,2.70
2023-05-13T10:00:40.473Z,2.45
2023-05-13T10:01:43.745Z,2.92
2023-05-13T10:02:46.240Z,2.65
2023-05-13T10:03:49.037Z,2.90
2023-05-13T10:04:52.488Z,3.67
2023-05-13T10:05:55.269Z,2.67
2023-05-13T10:06:58.939Z,2.75
2023-05-13T10:08:02.446Z,2.47
2023-05-13T10:09:08.317Z,3.30
2023-05-13T10:10:11.475Z,2.75
2023-05-13T10:11:15.745Z,3.08
2023-05-13T10:12:20.811Z,2.80
2023-05-13T10:13:24.980Z,2.53
2023-05-13T10:14:28.306Z,4.15
2023-05-13T10:15:31.149Z,3.53
2023-05-13T10:16:33.677Z,3.20
2023-05-13T10:17:36.579Z,3.60
2023-05-13T10:18:39.292Z,2.80
2023-05-13T10:19:42.150Z,2.70
2023-05-13T10:20:44.831Z,2.58
2023-05-13T10:21:47.735Z,3.47
2023-05-13T10:22:51.057Z,3.42
2023-05-13T10:23:53.828Z,2.95
2023-05-13T10:24:58.439Z,2.70
2023-05-13T10:26:01.199Z,3.17
2023-05-13T10:27:05.181Z,2.92
2023-05-13T10:28:08.865Z,2.70
2023-05-13T10:29:11.700Z,2.70
2023-05-13T10:30:14.459Z,3.00
2023-05-13T10:31:17.649Z,3.03
2023-05-13T10:32:20.819Z,3.28
2023-05-13T10:33:23.202Z,2.60
2023-05-13T10:34:26.427Z,2.85
2023-05-13T10:35:36.725Z,3.10
2023-05-13T10:36:48.084Z,3.38
2023-05-13T10:38:10.677Z,3.00
2023-05-13T10:39:59.554Z,3.13
2023-05-13T10:41:09.767Z,2.60
2023-05-13T10:42:27.487Z,2.95
2023-05-13T10:43:32.732Z,2.75
2023-05-13T10:44:35.726Z,2.88
2023-05-13T10:45:38.246Z,3.03
2023-05-13T10:46:42.909Z,2.85
2023-05-13T10:47:50.338Z,2.90
2023-05-13T10:48:57.113Z,3.13
2023-05-13T10:50:04.955Z,2.72
2023-05-13T10:51:08.300Z,2.95
2023-05-13T10:52:14.353Z,3.15
2023-05-13T10:53:23.741Z,3.17
2023-05-13T10:54:26.004Z,2.80
2023-05-13T10:55:28.628Z,2.85
2023-05-13T10:56:30.988Z,3.47
2023-05-13T10:57:37.898Z,2.90
2023-05-13T10:58:40.490Z,3.47
2023-05-13T11:00:19.052Z,3.13
2023-05-13T11:01:44.218Z,2.90
2023-05-13T11:02:46.689Z,2.80
2023-05-13T11:04:00.066Z,3.35
2023-05-13T11:05:04.908Z,3.53
2023-05-13T11:06:13.512Z,3.75
2023-05-13T11:07:16.732Z,3.47
2023-05-13T11:08:45.769Z,3.33
2023-05-13T11:09:51.575Z,4.00
2023-05-13T11:10:57.503Z,4.55
2023-05-13T11:12:00.653Z,3.22
2023-05-13T11:13:15.256Z,3.22
2023-05-13T11:14:19.362Z,2.97
2023-05-13T11:15:22.474Z,3.53
2023-05-13T11:16:24.860Z,3.80
2023-05-13T11:17:27.410Z,3.15
2023-05-13T11:18:30.767Z,3.05
2023-05-13T11:19:37.293Z,3.13
2023-05-13T11:20:51.526Z,3.25
2023-05-13T11:21:57.120Z,3.30
2023-05-13T11:23:00.194Z,3.75
2023-05-13T11:24:05.528Z,3.17
2023-05-13T11:25:09.773Z,3.30
2023-05-13T11:26:16.225Z,3.47
2023-05-13T11:27:20.748Z,3.30
2023-05-13T11:29:03.703Z,3.00
2023-05-13T11:30:07.803Z,3.40
2023-05-13T11:31:17.453Z,3.63
2023-05-13T11:32:56.391Z,3.33
2023-05-13T11:34:13.658Z,2.92
2023-05-13T11:35:20.801Z,3.42
2023-05-13T11:36:31.002Z,3.33
2023-05-13T11:37:33.520Z,3.70
2023-05-13T11:38:36.027Z,3.83
2023-05-13T11:39:42.009Z,3.08
2023-05-13T11:40:44.565Z,3.72
2023-05-13T11:41:49.208Z,3.63
2023-05-13T11:42:51.598Z,3.63
2023-05-13T11:43:54.156Z,3.20
2023-05-13T11:44:56.481Z,3.20
2023-05-13T11:45:59.547Z,3.53
2023-05-13T11:47:08.187Z,3.10
2023-05-13T11:48:22.377Z,3.33
2023-05-13T11:49:39.040Z,3.45
2023-05-13T11:50:41.482Z,3.20
2023-05-13T11:51:43.864Z,2.95
2023-05-13T11:52:51.748Z,3.40
2023-05-13T11:54:03.119Z,3.38
2023-05-13T11:55:07.141Z,3.50
2023-05-13T11:56:13.069Z,3.70
2023-05-13T11:57:25.430Z,3.25
2023-05-13T11:58:27.924Z,3.58
2023-05-13T11:59:38.668Z,3.38
2023-05-13T12:00:54.860Z,4.32
2023-05-13T12:02:03.460Z,4.20
2023-05-13T12:03:11.828Z,3.53
2023-05-13T12:04:14.522Z,3.70
2023-05-13T12:05:16.806Z,3.60
2023-05-13T12:06:19.311Z,3.70
2023-05-13T12:07:23.130Z,3.45
2023-05-13T12:08:25.353Z,4.18
2023-05-13T12:09:27.961Z,3.75
2023-05-13T12:10:30.133Z,4.00
2023-05-13T12:11:33.380Z,3.75
2023-05-13T12:12:41.136Z,3.92
2023-05-13T12:13:43.527Z,3.33
2023-05-13T12:14:47.525Z,4.30
2023-05-13T12:15:50.303Z,4.00
2023-05-13T12:16:52.563Z,3.50
2023-05-13T12:17:55.135Z,3.97
2023-05-13T12:19:04.830Z,4.05
2023-05-13T12:20:13.568Z,3.90
2023-05-13T12:21:17.359Z,4.07
2023-05-13T12:22:22.195Z,4.10
2023-05-13T12:23:24.643Z,4.45
2023-05-13T12:24:27.450Z,3.80
2023-05-13T12:25:36.320Z,4.10
2023-05-13T12:26:39.341Z,3.78
2023-05-13T12:27:41.733Z,3.92
2023-05-13T12:28:44.085Z,4.10
2023-05-13T12:29:46.768Z,4.22
2023-05-13T12:30:56.681Z,4.10
2023-05-13T12:32:06.266Z,4.63
2023-05-13T12:33:16.377Z,3.63
2023-05-13T12:34:32.516Z,4.28
2023-05-13T12:35:34.988Z,3.95
2023-05-13T12:36:38.892Z,4.00
2023-05-13T12:37:41.656Z,4.00
2023-05-13T12:38:59.807Z,3.88
2023-05-13T12:40:13.191Z,4.20
2023-05-13T12:41:15.389Z,4.05
2023-05-13T12:42:18.654Z,3.85
2023-05-13T12:43:20.921Z,3.60
2023-05-13T12:44:23.091Z,4.00
2023-05-13T12:45:33.030Z,4.05
2023-05-13T12:46:35.879Z,3.72
2023-05-13T12:48:04.320Z,3.83
2023-05-13T12:49:09.458Z,4.13
2023-05-13T12:50:11.866Z,4.22
2023-05-13T12:51:16.005Z,4.20
2023-05-13T12:52:18.215Z,3.90
2023-05-13T12:53:21.345Z,3.78
2023-05-13T12:54:23.578Z,3.42
2023-05-13T12:55:27.299Z,3.80
2023-05-13T12:56:29.842Z,4.30
2023-05-13T12:57:32.435Z,3.58
2023-05-13T12:58:34.824Z,3.75
2023-05-13T12:59:37.281Z,3.95
2023-05-13T13:00:39.583Z,4.18
2023-05-13T13:01:43.095Z,3.95
2023-05-13T13:02:45.513Z,3.97
2023-05-13T13:03:47.875Z,3.60
2023-05-13T13:04:50.333Z,4.65
2023-05-13T13:05:52.774Z,4.50
2023-05-13T13:06:54.981Z,4.40
2023-05-13T13:07:57.444Z,3.80
2023-05-13T13:08:59.635Z,4.00
2023-05-13T13:10:01.842Z,3.58
2023-05-13T13:11:04.694Z,3.67
2023-05-13T13:12:07.188Z,3.38
2023-05-13T13:13:09.873Z,3.92
2023-05-13T13:14:12.006Z,3.83
2023-05-13T13:15:14.272Z,3.78
2023-05-13T13:16:16.701Z,3.58
2023-05-13T13:17:18.901Z,3.40
2023-05-13T13:18:21.317Z,3.10
2023-05-13T13:19:23.773Z,3.00
2023-05-13T13:20:26.202Z,3.35
2023-05-13T13:21:28.632Z,3.15
2023-05-13T13:22:31.759Z,3.55
2023-05-13T13:23:34.556Z,4.13
2023-05-13T13:24:36.999Z,3.90
2023-05-13T13:25:40.673Z,3.10
2023-05-13T13:26:43.080Z,3.05
2023-05-13T13:27:45.302Z,3.53
2023-05-13T13:28:47.757Z,3.60
2023-05-13T13:29:52.790Z,3.55
2023-05-13T13:30:59.076Z,3.17
2023-05-13T13:32:01.553Z,3.15
2023-05-13T13:33:07.096Z,3.38
2023-05-13T13:34:12.018Z,2.92
2023-05-13T13:35:14.244Z,2.90
2023-05-13T13:36:17.116Z,2.70
2023-05-13T13:37:19.539Z,3.05
2023-05-13T13:38:21.724Z,3.08
2023-05-13T13:39:28.559Z,3.00
2023-05-13T13:40:30.809Z,2.83
2023-05-13T13:41:33.219Z,3.35
2023-05-13T13:42:43.965Z,3.20
2023-05-13T13:43:47.926Z,2.92
2023-05-13T13:44:50.116Z,3.00
2023-05-13T13:45:52.753Z,3.00
2023-05-13T13:46:55.241Z,3.03
2023-05-13T13:47:57.921Z,3.03
2023-05-13T13:49:02.166Z,3.17
2023-05-13T13:50:06.688Z,3.00
2023-05-13T13:51:09.195Z,3.08
2023-05-13T13:52:11.410Z,3.05
2023-05-13T13:53:13.660Z,2.72
2023-05-13T13:54:16.015Z,3.08
2023-05-13T13:55:23.425Z,3.42
2023-05-13T13:56:25.645Z,3.80
2023-05-13T13:57:28.291Z,3.15
2023-05-13T13:58:30.533Z,3.45
2023-05-13T13:59:32.741Z,3.45
2023-05-13T14:00:35.151Z,4.32
2023-05-13T14:01:38.933Z,4.72
2023-05-13T14:02:42.082Z,3.35
2023-05-13T14:03:44.590Z,4.60
2023-05-13T14:04:46.916Z,2.95
2023-05-13T14:05:49.945Z,3.30
2023-05-13T14:06:52.422Z,3.22
2023-05-13T14:07:56.306Z,2.78
2023-05-13T14:08:58.453Z,3.35
2023-05-13T14:10:01.647Z,3.90
2023-05-13T14:11:04.059Z,6.57
2023-05-13T14:12:06.309Z,4.82
2023-05-13T14:13:08.842Z,4.20
2023-05-13T14:14:11.114Z,3.33
2023-05-13T14:15:13.541Z,2.08
2023-05-13T14:16:15.802Z,2.03
2023-05-13T14:17:19.193Z,2.53
2023-05-13T14:18:21.414Z,2.05
2023-05-13T14:19:24.094Z,2.63